Wales, AK

1:41 PM AKDT on July 24, 2014 (GMT -0800)
Tin City LRRS (PATC) Elev 272 ft | 65.56 °N, 167.92 °W | Change Station

Current weather conditions updated 46 minutes ago

Overcast
Overcast
40 °F
Feels Like 31 °F
N
18
Wind Variable Wind from NNE

Today is forecast to be Cooler than yesterday.

Today
High -- | Low -- °F
--% Chance of Precip.
Yesterday
High -- | Low -- °F
Precip. -- in
5:33 AM 0:59 AM
Waning Crescent, 4% visible
Pressure 30.06 in
Visibility 10.0 miles
Clouds Overcast 1300 ft
Windchill 31 °F
Dew Point 36 °F
Humidity 85%
Rainfall 0.00 in
Snow Depth Not available.
UV 1 out of 12
Pollen Not available.
Air Quality Not available.
Flu Activity Not available.
METAR PATC 242055Z AUTO 02016KT 10SM OVC013 05/02 A3004 RMK AO2 SLP177 T00450021 53015

More Conditions Fewer Conditions

Pressure 30.06 in
Visibility 10.0 miles
Clouds Overcast 1300 ft
Windchill 31 °F
Dew Point 36 °F
Humidity 85%
Rainfall 0.00 in
Snow Depth Not available.
UV 1 out of 12
Pollen Not available.
Air Quality Not available.
Flu Activity Not available.
METAR PATC 242055Z AUTO 02016KT 10SM OVC013 05/02 A3004 RMK AO2 SLP177 T00450021 53015

More Conditions Fewer Conditions

10-Day Weather Forecast

Almanac

Astronomy

Jul. 24, 2014 Rise Set
Actual Time 5:33 AM AKDT 12:59 AM AKDT
Civil Twilight 3:50 AM AKDT 2:45 AM AKDT
Nautical Twilight Sun does not rise Sun does not rise
Astronomical Twilight Sun does not rise Sun does not rise
Moon 4:12 AM AKDT 10:57 PM AKDT
Length of Visible Light 22h 55m
Length of Day
19h 25m
Tomorrow will be 7m 35s shorter.
Waning Crescent, 4% of the Moon is Illuminated
Today
Waning Crescent
Jul 26
New
Aug 3
First Quarter
Aug 10
Full
Aug 17
Last Quarter

Today's Extremes

State Highs State Lows

Community

WunderPhotos

Upload Photos

1,737,139 photos uploaded!

WunderBlogs® & News

Nearby

Snow Depth

Station Depth Elevation
Rocky Point 2 in 500 ft
Gobblers Knob 0 in 2030 ft
Coldfoot 1 in 1040 ft
Atigun Pass 0 in 4800 ft
Imnaviat Creek 0 in 3050 ft

Earthquake Activity

City Distance Mag. Time & Date
No recent earthquake activity has been reported nearby.
Minimum magnitude displayed is 2.5.

Coastal Water Temperatures

Place Temperature
No Stations Reporting

Nearby Weather Stations

There are no personal weather stations in this area.